sensor_id;sensor_type;location;lat;lon;timestamp;P1;durP1;ratioP1;P2;durP2;ratioP2
19343;SDS011;9808;52.402;16.678;2023-02-12T00:01:24;23.60;;;7.27;;
19343;SDS011;9808;52.402;16.678;2023-02-12T00:03:53;20.50;;;6.93;;
19343;SDS011;9808;52.402;16.678;2023-02-12T00:06:21;21.70;;;7.07;;
19343;SDS011;9808;52.402;16.678;2023-02-12T00:08:49;20.10;;;7.73;;
19343;SDS011;9808;52.402;16.678;2023-02-12T00:11:18;19.87;;;7.10;;
19343;SDS011;9808;52.402;16.678;2023-02-12T00:13:46;21.90;;;7.57;;
19343;SDS011;9808;52.402;16.678;2023-02-12T00:16:15;23.63;;;8.00;;
19343;SDS011;9808;52.402;16.678;2023-02-12T00:18:43;21.60;;;7.97;;
19343;SDS011;9808;52.402;16.678;2023-02-12T00:21:10;29.13;;;9.93;;
19343;SDS011;9808;52.402;16.678;2023-02-12T00:23:39;36.87;;;10.97;;
19343;SDS011;9808;52.402;16.678;2023-02-12T00:26:08;29.60;;;9.40;;
19343;SDS011;9808;52.402;16.678;2023-02-12T00:28:35;37.33;;;10.27;;
19343;SDS011;9808;52.402;16.678;2023-02-12T00:31:06;39.87;;;9.83;;
19343;SDS011;9808;52.402;16.678;2023-02-12T00:33:34;30.90;;;9.47;;
19343;SDS011;9808;52.402;16.678;2023-02-12T00:36:01;36.60;;;9.40;;
19343;SDS011;9808;52.402;16.678;2023-02-12T00:38:29;26.67;;;10.23;;
19343;SDS011;9808;52.402;16.678;2023-02-12T00:40:56;29.50;;;8.93;;
19343;SDS011;9808;52.402;16.678;2023-02-12T00:43:23;23.73;;;8.03;;
19343;SDS011;9808;52.402;16.678;2023-02-12T00:45:50;27.53;;;7.80;;
19343;SDS011;9808;52.402;16.678;2023-02-12T00:48:18;22.33;;;7.00;;
19343;SDS011;9808;52.402;16.678;2023-02-12T00:50:46;22.13;;;7.57;;
19343;SDS011;9808;52.402;16.678;2023-02-12T00:53:14;19.93;;;6.57;;
19343;SDS011;9808;52.402;16.678;2023-02-12T00:55:42;25.10;;;6.73;;
19343;SDS011;9808;52.402;16.678;2023-02-12T00:58:09;25.20;;;7.07;;
19343;SDS011;9808;52.402;16.678;2023-02-12T01:00:37;30.70;;;7.67;;
19343;SDS011;9808;52.402;16.678;2023-02-12T01:03:04;16.53;;;6.47;;
19343;SDS011;9808;52.402;16.678;2023-02-12T01:05:32;19.17;;;6.30;;
19343;SDS011;9808;52.402;16.678;2023-02-12T01:07:59;26.87;;;7.00;;
19343;SDS011;9808;52.402;16.678;2023-02-12T01:10:29;31.90;;;8.30;;
19343;SDS011;9808;52.402;16.678;2023-02-12T01:12:57;43.23;;;8.63;;
19343;SDS011;9808;52.402;16.678;2023-02-12T01:15:24;34.77;;;8.53;;
19343;SDS011;9808;52.402;16.678;2023-02-12T01:17:53;34.03;;;8.13;;
19343;SDS011;9808;52.402;16.678;2023-02-12T01:20:21;29.13;;;8.33;;
19343;SDS011;9808;52.402;16.678;2023-02-12T01:22:49;29.07;;;8.10;;
19343;SDS011;9808;52.402;16.678;2023-02-12T01:25:16;26.47;;;8.10;;
19343;SDS011;9808;52.402;16.678;2023-02-12T01:27:46;25.57;;;7.23;;
19343;SDS011;9808;52.402;16.678;2023-02-12T01:30:13;21.10;;;6.57;;
19343;SDS011;9808;52.402;16.678;2023-02-12T01:32:41;28.70;;;7.23;;
19343;SDS011;9808;52.402;16.678;2023-02-12T01:35:09;23.87;;;6.83;;
19343;SDS011;9808;52.402;16.678;2023-02-12T01:37:37;24.50;;;6.57;;
19343;SDS011;9808;52.402;16.678;2023-02-12T01:40:05;29.10;;;7.13;;
19343;SDS011;9808;52.402;16.678;2023-02-12T01:42:33;25.30;;;6.63;;
19343;SDS011;9808;52.402;16.678;2023-02-12T01:47:37;25.10;;;7.10;;
19343;SDS011;9808;52.402;16.678;2023-02-12T01:50:05;22.90;;;7.13;;
19343;SDS011;9808;52.402;16.678;2023-02-12T01:52:34;24.87;;;7.07;;
19343;SDS011;9808;52.402;16.678;2023-02-12T01:55:03;28.07;;;7.10;;
19343;SDS011;9808;52.402;16.678;2023-02-12T01:57:33;17.13;;;6.53;;
19343;SDS011;9808;52.402;16.678;2023-02-12T02:00:03;23.33;;;6.77;;
19343;SDS011;9808;52.402;16.678;2023-02-12T02:02:32;21.80;;;6.50;;
19343;SDS011;9808;52.402;16.678;2023-02-12T02:05:00;28.03;;;7.10;;
19343;SDS011;9808;52.402;16.678;2023-02-12T02:07:30;27.53;;;7.33;;
19343;SDS011;9808;52.402;16.678;2023-02-12T02:09:57;27.10;;;7.13;;
19343;SDS011;9808;52.402;16.678;2023-02-12T02:12:25;22.73;;;6.43;;
19343;SDS011;9808;52.402;16.678;2023-02-12T02:15:12;24.37;;;6.73;;
19343;SDS011;9808;52.402;16.678;2023-02-12T02:33:38;24.80;;;6.07;;
19343;SDS011;9808;52.402;16.678;2023-02-12T02:38:43;19.67;;;5.83;;
19343;SDS011;9808;52.402;16.678;2023-02-12T02:43:48;25.57;;;6.00;;
19343;SDS011;9808;52.402;16.678;2023-02-12T02:46:18;22.03;;;6.60;;
19343;SDS011;9808;52.402;16.678;2023-02-12T02:48:51;22.87;;;6.37;;
19343;SDS011;9808;52.402;16.678;2023-02-12T02:51:21;27.97;;;5.70;;
19343;SDS011;9808;52.402;16.678;2023-02-12T02:54:11;24.87;;;6.17;;
19343;SDS011;9808;52.402;16.678;2023-02-12T02:56:40;28.90;;;7.00;;
19343;SDS011;9808;52.402;16.678;2023-02-12T02:59:12;24.50;;;6.10;;
19343;SDS011;9808;52.402;16.678;2023-02-12T03:01:57;23.37;;;6.17;;
19343;SDS011;9808;52.402;16.678;2023-02-12T03:04:28;25.83;;;6.37;;
19343;SDS011;9808;52.402;16.678;2023-02-12T03:09:44;22.90;;;6.33;;
19343;SDS011;9808;52.402;16.678;2023-02-12T03:12:14;21.90;;;5.83;;
19343;SDS011;9808;52.402;16.678;2023-02-12T03:14:47;27.47;;;7.53;;
19343;SDS011;9808;52.402;16.678;2023-02-12T03:17:20;39.63;;;10.70;;
19343;SDS011;9808;52.402;16.678;2023-02-12T03:19:58;33.03;;;9.37;;
19343;SDS011;9808;52.402;16.678;2023-02-12T03:22:27;32.10;;;9.13;;
19343;SDS011;9808;52.402;16.678;2023-02-12T03:25:02;25.87;;;7.70;;
19343;SDS011;9808;52.402;16.678;2023-02-12T03:27:38;27.73;;;7.00;;
19343;SDS011;9808;52.402;16.678;2023-02-12T03:30:07;28.37;;;6.53;;
19343;SDS011;9808;52.402;16.678;2023-02-12T03:35:22;30.23;;;8.40;;
19343;SDS011;9808;52.402;16.678;2023-02-12T03:38:06;30.60;;;8.07;;
19343;SDS011;9808;52.402;16.678;2023-02-12T03:40:42;31.83;;;7.80;;
19343;SDS011;9808;52.402;16.678;2023-02-12T03:45:49;33.50;;;7.87;;
19343;SDS011;9808;52.402;16.678;2023-02-12T03:51:21;22.57;;;7.60;;
19343;SDS011;9808;52.402;16.678;2023-02-12T03:53:50;25.97;;;7.87;;
19343;SDS011;9808;52.402;16.678;2023-02-12T03:56:52;28.37;;;7.73;;
19343;SDS011;9808;52.402;16.678;2023-02-12T03:59:13;28.90;;;7.87;;
19343;SDS011;9808;52.402;16.678;2023-02-12T04:01:41;35.70;;;8.57;;
19343;SDS011;9808;52.402;16.678;2023-02-12T04:04:08;29.93;;;8.50;;
19343;SDS011;9808;52.402;16.678;2023-02-12T04:06:36;37.83;;;8.80;;
19343;SDS011;9808;52.402;16.678;2023-02-12T04:09:05;71.30;;;16.10;;
19343;SDS011;9808;52.402;16.678;2023-02-12T04:16:28;56.83;;;11.97;;
19343;SDS011;9808;52.402;16.678;2023-02-12T04:18:58;29.57;;;8.73;;
19343;SDS011;9808;52.402;16.678;2023-02-12T04:26:50;33.50;;;7.90;;
19343;SDS011;9808;52.402;16.678;2023-02-12T04:39:44;34.07;;;7.40;;
19343;SDS011;9808;52.402;16.678;2023-02-12T04:42:11;33.93;;;8.33;;
19343;SDS011;9808;52.402;16.678;2023-02-12T04:44:40;53.13;;;13.50;;
19343;SDS011;9808;52.402;16.678;2023-02-12T04:47:10;59.30;;;17.30;;
19343;SDS011;9808;52.402;16.678;2023-02-12T04:49:37;43.43;;;11.90;;
19343;SDS011;9808;52.402;16.678;2023-02-12T04:52:04;38.10;;;10.43;;
19343;SDS011;9808;52.402;16.678;2023-02-12T04:54:32;36.57;;;10.20;;
19343;SDS011;9808;52.402;16.678;2023-02-12T04:56:59;35.30;;;9.63;;
19343;SDS011;9808;52.402;16.678;2023-02-12T04:59:26;29.30;;;7.37;;
19343;SDS011;9808;52.402;16.678;2023-02-12T05:01:54;25.87;;;5.63;;
19343;SDS011;9808;52.402;16.678;2023-02-12T05:04:21;24.90;;;6.50;;
19343;SDS011;9808;52.402;16.678;2023-02-12T05:06:48;29.37;;;6.90;;
19343;SDS011;9808;52.402;16.678;2023-02-12T05:09:17;17.17;;;5.97;;
19343;SDS011;9808;52.402;16.678;2023-02-12T05:11:44;33.07;;;6.53;;
19343;SDS011;9808;52.402;16.678;2023-02-12T05:14:12;30.37;;;7.20;;
19343;SDS011;9808;52.402;16.678;2023-02-12T05:16:39;18.70;;;6.37;;
19343;SDS011;9808;52.402;16.678;2023-02-12T05:19:06;23.20;;;6.23;;
19343;SDS011;9808;52.402;16.678;2023-02-12T05:21:35;21.73;;;6.17;;
19343;SDS011;9808;52.402;16.678;2023-02-12T05:24:03;22.67;;;6.60;;
19343;SDS011;9808;52.402;16.678;2023-02-12T05:26:30;26.43;;;6.90;;
19343;SDS011;9808;52.402;16.678;2023-02-12T05:28:57;27.43;;;6.90;;
19343;SDS011;9808;52.402;16.678;2023-02-12T05:31:25;35.40;;;8.27;;
19343;SDS011;9808;52.402;16.678;2023-02-12T05:33:52;37.53;;;9.23;;
19343;SDS011;9808;52.402;16.678;2023-02-12T05:36:20;43.67;;;9.97;;
19343;SDS011;9808;52.402;16.678;2023-02-12T05:38:48;38.73;;;9.23;;
19343;SDS011;9808;52.402;16.678;2023-02-12T05:41:17;39.47;;;9.40;;
19343;SDS011;9808;52.402;16.678;2023-02-12T05:43:44;31.63;;;9.60;;
19343;SDS011;9808;52.402;16.678;2023-02-12T05:46:14;36.93;;;9.73;;
19343;SDS011;9808;52.402;16.678;2023-02-12T05:48:42;27.77;;;8.63;;
19343;SDS011;9808;52.402;16.678;2023-02-12T05:51:14;40.70;;;9.37;;
19343;SDS011;9808;52.402;16.678;2023-02-12T05:53:41;40.10;;;9.03;;
19343;SDS011;9808;52.402;16.678;2023-02-12T05:56:16;29.67;;;7.77;;
19343;SDS011;9808;52.402;16.678;2023-02-12T05:58:46;27.40;;;8.50;;
19343;SDS011;9808;52.402;16.678;2023-02-12T06:01:15;39.33;;;10.63;;
19343;SDS011;9808;52.402;16.678;2023-02-12T06:03:42;53.57;;;10.30;;
19343;SDS011;9808;52.402;16.678;2023-02-12T06:06:10;31.67;;;8.00;;
19343;SDS011;9808;52.402;16.678;2023-02-12T06:08:37;29.17;;;8.57;;
19343;SDS011;9808;52.402;16.678;2023-02-12T06:11:05;28.03;;;8.27;;
19343;SDS011;9808;52.402;16.678;2023-02-12T06:13:33;34.07;;;9.47;;
19343;SDS011;9808;52.402;16.678;2023-02-12T06:16:00;34.13;;;8.93;;
19343;SDS011;9808;52.402;16.678;2023-02-12T06:18:28;38.43;;;10.03;;
19343;SDS011;9808;52.402;16.678;2023-02-12T06:20:55;43.97;;;11.47;;
19343;SDS011;9808;52.402;16.678;2023-02-12T06:23:23;30.53;;;9.43;;
19343;SDS011;9808;52.402;16.678;2023-02-12T06:25:54;43.60;;;10.33;;
19343;SDS011;9808;52.402;16.678;2023-02-12T06:28:22;38.70;;;9.83;;
19343;SDS011;9808;52.402;16.678;2023-02-12T06:30:50;35.60;;;10.83;;
19343;SDS011;9808;52.402;16.678;2023-02-12T06:33:17;33.07;;;10.80;;
19343;SDS011;9808;52.402;16.678;2023-02-12T06:35:44;39.10;;;10.47;;
19343;SDS011;9808;52.402;16.678;2023-02-12T06:38:12;43.40;;;11.33;;
19343;SDS011;9808;52.402;16.678;2023-02-12T06:40:40;44.80;;;11.83;;
19343;SDS011;9808;52.402;16.678;2023-02-12T06:43:07;45.17;;;11.57;;
19343;SDS011;9808;52.402;16.678;2023-02-12T06:45:34;37.17;;;11.57;;
19343;SDS011;9808;52.402;16.678;2023-02-12T06:48:01;53.00;;;15.03;;
19343;SDS011;9808;52.402;16.678;2023-02-12T06:50:29;53.23;;;16.17;;
19343;SDS011;9808;52.402;16.678;2023-02-12T06:52:57;59.63;;;16.53;;
19343;SDS011;9808;52.402;16.678;2023-02-12T06:55:24;40.03;;;15.97;;
19343;SDS011;9808;52.402;16.678;2023-02-12T06:57:52;53.47;;;15.43;;
19343;SDS011;9808;52.402;16.678;2023-02-12T07:00:19;36.30;;;13.73;;
19343;SDS011;9808;52.402;16.678;2023-02-12T07:02:53;49.53;;;14.77;;
19343;SDS011;9808;52.402;16.678;2023-02-12T07:05:21;45.37;;;16.40;;
19343;SDS011;9808;52.402;16.678;2023-02-12T07:07:49;67.97;;;21.90;;
19343;SDS011;9808;52.402;16.678;2023-02-12T07:10:17;80.20;;;24.30;;
19343;SDS011;9808;52.402;16.678;2023-02-12T07:12:44;69.23;;;23.27;;
19343;SDS011;9808;52.402;16.678;2023-02-12T07:15:11;69.97;;;24.93;;
19343;SDS011;9808;52.402;16.678;2023-02-12T07:17:39;67.50;;;22.53;;
19343;SDS011;9808;52.402;16.678;2023-02-12T07:20:06;62.53;;;20.00;;
19343;SDS011;9808;52.402;16.678;2023-02-12T07:22:37;38.53;;;16.73;;
19343;SDS011;9808;52.402;16.678;2023-02-12T07:25:04;53.40;;;21.33;;
19343;SDS011;9808;52.402;16.678;2023-02-12T07:27:34;86.67;;;31.30;;
19343;SDS011;9808;52.402;16.678;2023-02-12T07:30:02;69.30;;;27.60;;
19343;SDS011;9808;52.402;16.678;2023-02-12T07:32:33;65.70;;;26.30;;
19343;SDS011;9808;52.402;16.678;2023-02-12T07:35:00;63.27;;;26.50;;
19343;SDS011;9808;52.402;16.678;2023-02-12T07:37:27;66.67;;;24.93;;
19343;SDS011;9808;52.402;16.678;2023-02-12T07:39:54;64.80;;;24.87;;
19343;SDS011;9808;52.402;16.678;2023-02-12T07:42:22;55.70;;;24.40;;
19343;SDS011;9808;52.402;16.678;2023-02-12T07:44:49;60.80;;;21.97;;
19343;SDS011;9808;52.402;16.678;2023-02-12T07:47:16;59.87;;;23.33;;
19343;SDS011;9808;52.402;16.678;2023-02-12T07:49:44;60.63;;;24.10;;
19343;SDS011;9808;52.402;16.678;2023-02-12T07:52:11;59.63;;;23.97;;
19343;SDS011;9808;52.402;16.678;2023-02-12T07:54:38;57.47;;;23.70;;
19343;SDS011;9808;52.402;16.678;2023-02-12T07:57:06;56.20;;;23.40;;
19343;SDS011;9808;52.402;16.678;2023-02-12T07:59:33;45.57;;;18.57;;
19343;SDS011;9808;52.402;16.678;2023-02-12T08:02:00;52.20;;;17.93;;
19343;SDS011;9808;52.402;16.678;2023-02-12T08:04:27;48.33;;;16.63;;
19343;SDS011;9808;52.402;16.678;2023-02-12T08:06:55;43.23;;;15.67;;
19343;SDS011;9808;52.402;16.678;2023-02-12T08:09:24;41.37;;;16.90;;
19343;SDS011;9808;52.402;16.678;2023-02-12T08:11:51;50.33;;;21.00;;
19343;SDS011;9808;52.402;16.678;2023-02-12T08:14:19;59.80;;;21.87;;
19343;SDS011;9808;52.402;16.678;2023-02-12T08:16:47;48.20;;;17.50;;
19343;SDS011;9808;52.402;16.678;2023-02-12T08:19:15;40.43;;;15.97;;
19343;SDS011;9808;52.402;16.678;2023-02-12T08:21:49;48.03;;;16.23;;
19343;SDS011;9808;52.402;16.678;2023-02-12T08:24:17;35.63;;;14.67;;
19343;SDS011;9808;52.402;16.678;2023-02-12T08:26:44;32.10;;;11.97;;
19343;SDS011;9808;52.402;16.678;2023-02-12T08:29:12;39.10;;;12.83;;
19343;SDS011;9808;52.402;16.678;2023-02-12T08:31:41;31.70;;;12.43;;
19343;SDS011;9808;52.402;16.678;2023-02-12T08:34:18;32.40;;;11.20;;
19343;SDS011;9808;52.402;16.678;2023-02-12T08:36:46;34.63;;;13.10;;
19343;SDS011;9808;52.402;16.678;2023-02-12T08:39:14;34.67;;;13.10;;
19343;SDS011;9808;52.402;16.678;2023-02-12T08:41:42;37.73;;;13.00;;
19343;SDS011;9808;52.402;16.678;2023-02-12T08:44:10;30.57;;;11.87;;
19343;SDS011;9808;52.402;16.678;2023-02-12T08:46:38;26.83;;;10.60;;
19343;SDS011;9808;52.402;16.678;2023-02-12T08:49:08;26.33;;;10.57;;
19343;SDS011;9808;52.402;16.678;2023-02-12T08:51:38;41.10;;;13.57;;
19343;SDS011;9808;52.402;16.678;2023-02-12T08:54:06;47.63;;;19.90;;
19343;SDS011;9808;52.402;16.678;2023-02-12T08:56:34;50.17;;;17.97;;
19343;SDS011;9808;52.402;16.678;2023-02-12T08:59:02;40.00;;;14.93;;
19343;SDS011;9808;52.402;16.678;2023-02-12T09:01:31;32.07;;;12.23;;
19343;SDS011;9808;52.402;16.678;2023-02-12T09:03:58;30.10;;;10.57;;
19343;SDS011;9808;52.402;16.678;2023-02-12T09:06:26;25.07;;;10.37;;
19343;SDS011;9808;52.402;16.678;2023-02-12T09:08:53;26.43;;;9.57;;
19343;SDS011;9808;52.402;16.678;2023-02-12T09:11:21;26.07;;;10.33;;
19343;SDS011;9808;52.402;16.678;2023-02-12T09:13:51;26.87;;;11.37;;
19343;SDS011;9808;52.402;16.678;2023-02-12T09:16:19;27.07;;;11.40;;
19343;SDS011;9808;52.402;16.678;2023-02-12T09:18:46;35.13;;;13.10;;
19343;SDS011;9808;52.402;16.678;2023-02-12T09:21:14;30.87;;;11.13;;
19343;SDS011;9808;52.402;16.678;2023-02-12T09:23:42;30.23;;;11.70;;
19343;SDS011;9808;52.402;16.678;2023-02-12T09:26:14;30.63;;;12.20;;
19343;SDS011;9808;52.402;16.678;2023-02-12T09:28:42;34.37;;;11.77;;
19343;SDS011;9808;52.402;16.678;2023-02-12T09:31:11;29.17;;;10.70;;
19343;SDS011;9808;52.402;16.678;2023-02-12T09:33:39;25.10;;;9.67;;
19343;SDS011;9808;52.402;16.678;2023-02-12T09:36:07;25.33;;;10.03;;
19343;SDS011;9808;52.402;16.678;2023-02-12T09:38:35;23.20;;;9.23;;
19343;SDS011;9808;52.402;16.678;2023-02-12T09:47:07;22.33;;;8.33;;
19343;SDS011;9808;52.402;16.678;2023-02-12T09:51:47;22.40;;;8.37;;
19343;SDS011;9808;52.402;16.678;2023-02-12T09:54:23;19.10;;;7.30;;
19343;SDS011;9808;52.402;16.678;2023-02-12T09:56:53;21.10;;;7.80;;
19343;SDS011;9808;52.402;16.678;2023-02-12T09:59:40;19.03;;;7.37;;
19343;SDS011;9808;52.402;16.678;2023-02-12T10:02:15;24.10;;;8.30;;
19343;SDS011;9808;52.402;16.678;2023-02-12T10:04:43;24.47;;;8.03;;
19343;SDS011;9808;52.402;16.678;2023-02-12T10:07:37;22.73;;;8.80;;
19343;SDS011;9808;52.402;16.678;2023-02-12T10:12:50;25.90;;;9.23;;
19343;SDS011;9808;52.402;16.678;2023-02-12T10:15:37;26.53;;;8.87;;
19343;SDS011;9808;52.402;16.678;2023-02-12T10:18:12;24.87;;;9.30;;
19343;SDS011;9808;52.402;16.678;2023-02-12T10:20:49;33.63;;;9.40;;
19343;SDS011;9808;52.402;16.678;2023-02-12T10:26:18;27.83;;;9.40;;
19343;SDS011;9808;52.402;16.678;2023-02-12T10:28:47;28.50;;;10.57;;
19343;SDS011;9808;52.402;16.678;2023-02-12T10:31:18;23.97;;;9.83;;
19343;SDS011;9808;52.402;16.678;2023-02-12T10:33:49;30.53;;;9.67;;
19343;SDS011;9808;52.402;16.678;2023-02-12T10:39:04;33.03;;;10.50;;
19343;SDS011;9808;52.402;16.678;2023-02-12T10:41:36;26.00;;;11.40;;
19343;SDS011;9808;52.402;16.678;2023-02-12T10:44:05;32.17;;;11.40;;
19343;SDS011;9808;52.402;16.678;2023-02-12T10:46:33;27.97;;;9.37;;
19343;SDS011;9808;52.402;16.678;2023-02-12T10:49:01;23.13;;;8.87;;
19343;SDS011;9808;52.402;16.678;2023-02-12T10:51:33;25.27;;;8.87;;
19343;SDS011;9808;52.402;16.678;2023-02-12T10:56:49;18.60;;;6.10;;
19343;SDS011;9808;52.402;16.678;2023-02-12T10:59:23;19.37;;;6.30;;
19343;SDS011;9808;52.402;16.678;2023-02-12T11:01:50;24.30;;;6.90;;
19343;SDS011;9808;52.402;16.678;2023-02-12T11:04:22;22.43;;;6.50;;
19343;SDS011;9808;52.402;16.678;2023-02-12T11:07:00;20.83;;;6.60;;
19343;SDS011;9808;52.402;16.678;2023-02-12T11:09:30;22.83;;;7.20;;
19343;SDS011;9808;52.402;16.678;2023-02-12T11:12:00;19.20;;;6.87;;
19343;SDS011;9808;52.402;16.678;2023-02-12T11:14:27;17.23;;;6.77;;
19343;SDS011;9808;52.402;16.678;2023-02-12T11:16:56;17.93;;;6.67;;
19343;SDS011;9808;52.402;16.678;2023-02-12T11:19:24;13.97;;;5.47;;
19343;SDS011;9808;52.402;16.678;2023-02-12T11:22:03;19.50;;;5.43;;
19343;SDS011;9808;52.402;16.678;2023-02-12T11:24:31;15.77;;;5.13;;
19343;SDS011;9808;52.402;16.678;2023-02-12T11:27:10;17.53;;;5.33;;
19343;SDS011;9808;52.402;16.678;2023-02-12T11:29:38;13.57;;;5.40;;
19343;SDS011;9808;52.402;16.678;2023-02-12T11:32:06;14.70;;;5.40;;
19343;SDS011;9808;52.402;16.678;2023-02-12T11:34:34;16.97;;;5.30;;
19343;SDS011;9808;52.402;16.678;2023-02-12T11:37:02;22.57;;;5.90;;
19343;SDS011;9808;52.402;16.678;2023-02-12T11:44:33;26.63;;;7.23;;
19343;SDS011;9808;52.402;16.678;2023-02-12T11:47:02;24.67;;;8.27;;
19343;SDS011;9808;52.402;16.678;2023-02-12T11:49:41;29.70;;;9.70;;
19343;SDS011;9808;52.402;16.678;2023-02-12T11:52:28;24.13;;;8.23;;
19343;SDS011;9808;52.402;16.678;2023-02-12T11:54:58;25.13;;;8.67;;
19343;SDS011;9808;52.402;16.678;2023-02-12T11:57:45;20.97;;;7.57;;
19343;SDS011;9808;52.402;16.678;2023-02-12T12:00:17;23.67;;;8.13;;
19343;SDS011;9808;52.402;16.678;2023-02-12T12:05:22;34.80;;;14.13;;
19343;SDS011;9808;52.402;16.678;2023-02-12T12:07:54;32.90;;;10.43;;
19343;SDS011;9808;52.402;16.678;2023-02-12T12:13:17;24.10;;;7.57;;
19343;SDS011;9808;52.402;16.678;2023-02-12T12:16:02;23.43;;;7.30;;
19343;SDS011;9808;52.402;16.678;2023-02-12T12:18:51;23.10;;;6.20;;
19343;SDS011;9808;52.402;16.678;2023-02-12T12:26:59;22.63;;;8.10;;
19343;SDS011;9808;52.402;16.678;2023-02-12T12:29:39;22.70;;;6.73;;
19343;SDS011;9808;52.402;16.678;2023-02-12T12:32:08;20.90;;;6.87;;
19343;SDS011;9808;52.402;16.678;2023-02-12T12:34:37;21.20;;;6.73;;
19343;SDS011;9808;52.402;16.678;2023-02-12T12:37:23;19.17;;;7.07;;
19343;SDS011;9808;52.402;16.678;2023-02-12T12:39:59;27.13;;;8.90;;
19343;SDS011;9808;52.402;16.678;2023-02-12T12:53:34;27.17;;;8.63;;
19343;SDS011;9808;52.402;16.678;2023-02-12T12:56:42;18.37;;;7.33;;
19343;SDS011;9808;52.402;16.678;2023-02-12T13:07:45;23.20;;;8.17;;
19343;SDS011;9808;52.402;16.678;2023-02-12T13:10:02;23.73;;;8.53;;
19343;SDS011;9808;52.402;16.678;2023-02-12T13:12:39;30.80;;;8.40;;
19343;SDS011;9808;52.402;16.678;2023-02-12T13:15:25;20.13;;;7.13;;
19343;SDS011;9808;52.402;16.678;2023-02-12T13:18:03;23.43;;;7.13;;
19343;SDS011;9808;52.402;16.678;2023-02-12T13:20:36;33.37;;;8.27;;
19343;SDS011;9808;52.402;16.678;2023-02-12T13:23:17;23.47;;;8.13;;
19343;SDS011;9808;52.402;16.678;2023-02-12T13:25:49;23.33;;;7.93;;
19343;SDS011;9808;52.402;16.678;2023-02-12T13:28:22;18.87;;;7.63;;
19343;SDS011;9808;52.402;16.678;2023-02-12T13:30:52;22.90;;;8.20;;
19343;SDS011;9808;52.402;16.678;2023-02-12T13:33:27;25.73;;;8.13;;
19343;SDS011;9808;52.402;16.678;2023-02-12T13:35:57;24.13;;;8.37;;
19343;SDS011;9808;52.402;16.678;2023-02-12T13:38:27;31.23;;;8.47;;
19343;SDS011;9808;52.402;16.678;2023-02-12T13:40:57;24.23;;;9.70;;
19343;SDS011;9808;52.402;16.678;2023-02-12T13:58:54;30.97;;;10.53;;
19343;SDS011;9808;52.402;16.678;2023-02-12T14:01:42;31.23;;;10.73;;
19343;SDS011;9808;52.402;16.678;2023-02-12T14:04:24;24.87;;;9.17;;
19343;SDS011;9808;52.402;16.678;2023-02-12T14:07:02;22.40;;;9.20;;
19343;SDS011;9808;52.402;16.678;2023-02-12T14:09:42;26.90;;;9.13;;
19343;SDS011;9808;52.402;16.678;2023-02-12T14:12:12;38.03;;;12.50;;
19343;SDS011;9808;52.402;16.678;2023-02-12T14:14:50;35.13;;;12.13;;
19343;SDS011;9808;52.402;16.678;2023-02-12T14:20:19;29.13;;;10.33;;
19343;SDS011;9808;52.402;16.678;2023-02-12T14:27:57;21.57;;;6.87;;
19343;SDS011;9808;52.402;16.678;2023-02-12T14:32:56;17.93;;;6.53;;
19343;SDS011;9808;52.402;16.678;2023-02-12T14:37:55;17.00;;;5.37;;
19343;SDS011;9808;52.402;16.678;2023-02-12T14:40:56;19.43;;;6.23;;
19343;SDS011;9808;52.402;16.678;2023-02-12T14:43:30;15.97;;;4.87;;
19343;SDS011;9808;52.402;16.678;2023-02-12T14:46:41;16.40;;;5.50;;
19343;SDS011;9808;52.402;16.678;2023-02-12T14:48:55;14.53;;;5.03;;
19343;SDS011;9808;52.402;16.678;2023-02-12T14:51:43;14.73;;;5.47;;
19343;SDS011;9808;52.402;16.678;2023-02-12T14:54:14;16.93;;;6.33;;
19343;SDS011;9808;52.402;16.678;2023-02-12T14:56:44;16.57;;;5.60;;
19343;SDS011;9808;52.402;16.678;2023-02-12T14:59:17;20.23;;;5.80;;
19343;SDS011;9808;52.402;16.678;2023-02-12T15:01:45;17.17;;;5.10;;
19343;SDS011;9808;52.402;16.678;2023-02-12T15:04:23;18.63;;;5.30;;
19343;SDS011;9808;52.402;16.678;2023-02-12T15:06:56;15.87;;;5.27;;
19343;SDS011;9808;52.402;16.678;2023-02-12T15:10:12;14.70;;;4.13;;
19343;SDS011;9808;52.402;16.678;2023-02-12T15:17:51;18.53;;;5.03;;
19343;SDS011;9808;52.402;16.678;2023-02-12T15:20:22;16.30;;;5.80;;
19343;SDS011;9808;52.402;16.678;2023-02-12T15:22:50;13.10;;;4.60;;
19343;SDS011;9808;52.402;16.678;2023-02-12T15:25:22;15.87;;;4.93;;
19343;SDS011;9808;52.402;16.678;2023-02-12T15:30:39;17.03;;;5.13;;
19343;SDS011;9808;52.402;16.678;2023-02-12T15:33:08;25.70;;;6.10;;
19343;SDS011;9808;52.402;16.678;2023-02-12T15:35:36;18.43;;;6.57;;
19343;SDS011;9808;52.402;16.678;2023-02-12T15:38:05;20.80;;;6.13;;
19343;SDS011;9808;52.402;16.678;2023-02-12T15:40:33;13.80;;;4.93;;
19343;SDS011;9808;52.402;16.678;2023-02-12T15:43:01;16.67;;;5.00;;
19343;SDS011;9808;52.402;16.678;2023-02-12T15:45:31;13.73;;;4.77;;
19343;SDS011;9808;52.402;16.678;2023-02-12T15:50:26;16.70;;;5.30;;
19343;SDS011;9808;52.402;16.678;2023-02-12T15:52:54;18.27;;;5.40;;
19343;SDS011;9808;52.402;16.678;2023-02-12T15:55:23;19.97;;;6.03;;
19343;SDS011;9808;52.402;16.678;2023-02-12T15:57:56;17.40;;;6.47;;
19343;SDS011;9808;52.402;16.678;2023-02-12T16:02:54;22.80;;;6.63;;
19343;SDS011;9808;52.402;16.678;2023-02-12T16:05:21;24.47;;;7.40;;
19343;SDS011;9808;52.402;16.678;2023-02-12T16:07:48;20.40;;;6.93;;
19343;SDS011;9808;52.402;16.678;2023-02-12T16:10:17;16.17;;;6.53;;
19343;SDS011;9808;52.402;16.678;2023-02-12T16:12:45;29.00;;;9.40;;
19343;SDS011;9808;52.402;16.678;2023-02-12T16:15:22;26.40;;;11.47;;
19343;SDS011;9808;52.402;16.678;2023-02-12T16:17:49;24.97;;;9.67;;
19343;SDS011;9808;52.402;16.678;2023-02-12T16:22:44;18.83;;;6.70;;
19343;SDS011;9808;52.402;16.678;2023-02-12T16:25:14;18.23;;;6.30;;
19343;SDS011;9808;52.402;16.678;2023-02-12T16:27:48;21.77;;;6.90;;
19343;SDS011;9808;52.402;16.678;2023-02-12T16:30:37;22.60;;;6.60;;
19343;SDS011;9808;52.402;16.678;2023-02-12T16:36:04;21.57;;;7.63;;
19343;SDS011;9808;52.402;16.678;2023-02-12T16:43:41;25.03;;;8.73;;
19343;SDS011;9808;52.402;16.678;2023-02-12T16:46:09;41.00;;;12.63;;
19343;SDS011;9808;52.402;16.678;2023-02-12T16:48:41;38.47;;;14.03;;
19343;SDS011;9808;52.402;16.678;2023-02-12T16:51:28;26.57;;;9.33;;
19343;SDS011;9808;52.402;16.678;2023-02-12T16:53:56;21.93;;;8.30;;
19343;SDS011;9808;52.402;16.678;2023-02-12T16:56:25;26.67;;;8.17;;
19343;SDS011;9808;52.402;16.678;2023-02-12T16:58:55;23.70;;;7.73;;
19343;SDS011;9808;52.402;16.678;2023-02-12T17:01:24;25.57;;;8.43;;
19343;SDS011;9808;52.402;16.678;2023-02-12T17:03:51;25.07;;;8.13;;
19343;SDS011;9808;52.402;16.678;2023-02-12T17:06:20;28.57;;;9.20;;
19343;SDS011;9808;52.402;16.678;2023-02-12T17:08:48;46.57;;;14.60;;
19343;SDS011;9808;52.402;16.678;2023-02-12T17:11:15;36.10;;;11.67;;
19343;SDS011;9808;52.402;16.678;2023-02-12T17:13:47;40.23;;;11.17;;
19343;SDS011;9808;52.402;16.678;2023-02-12T17:16:15;35.10;;;10.90;;
19343;SDS011;9808;52.402;16.678;2023-02-12T17:18:55;23.00;;;8.50;;
19343;SDS011;9808;52.402;16.678;2023-02-12T17:21:23;25.17;;;8.30;;
19343;SDS011;9808;52.402;16.678;2023-02-12T17:23:51;26.50;;;9.17;;
19343;SDS011;9808;52.402;16.678;2023-02-12T17:26:22;27.00;;;9.40;;
19343;SDS011;9808;52.402;16.678;2023-02-12T17:28:49;36.10;;;11.37;;
19343;SDS011;9808;52.402;16.678;2023-02-12T17:31:16;42.43;;;12.60;;
19343;SDS011;9808;52.402;16.678;2023-02-12T17:33:46;48.03;;;13.83;;